Time;durP1;ratioP1;P1;durP2;ratioP2;P2;SDS_P1;SDS_P2;PMS_P1;PMS_P2;Temp;Humidity;BMP_temperature;BMP_pressure;BME280_temperature;BME280_humidity;BME280_pressure;Samples;Min_cycle;Max_cycle;Signal;HPM_P1;HPM_P2
2023/06/19 00:00:24;;;;;;;12.30;9.52;;;;;;;15.17;100.00;98165.72;2633688;28;20044;-94
2023/06/19 00:02:01;;;;;;;11.10;8.60;;;;;;;15.13;100.00;98161.53;2633447;28;20143;-94
2023/06/19 00:03:16;;;;;;;10.90;9.32;;;;;;;15.09;100.00;98162.63;2633489;28;20127;-92
2023/06/19 00:04:31;;;;;;;13.75;9.90;;;;;;;15.16;100.00;98164.03;2633758;28;20044;-92
2023/06/19 00:05:47;;;;;;;11.88;8.55;;;;;;;15.23;100.00;98164.56;2633411;28;20052;-93
2023/06/19 00:07:03;;;;;;;12.38;9.65;;;;;;;15.28;100.00;98156.38;2633584;28;20059;-91
2023/06/19 00:08:19;;;;;;;12.98;9.57;;;;;;;15.11;100.00;98163.38;2633520;28;20479;-93
2023/06/19 00:09:34;;;;;;;10.65;8.98;;;;;;;15.19;100.00;98160.34;2633516;28;20102;-93
2023/06/19 00:10:50;;;;;;;12.68;9.20;;;;;;;15.06;100.00;98158.34;2633669;28;20071;-93
2023/06/19 00:12:06;;;;;;;13.60;8.70;;;;;;;15.01;100.00;98152.47;2633579;28;20549;-93
2023/06/19 00:13:22;;;;;;;13.65;9.82;;;;;;;15.11;100.00;98156.34;2633603;28;20064;-92
2023/06/19 00:14:37;;;;;;;11.45;9.35;;;;;;;14.93;100.00;98158.13;2633611;28;20399;-92
2023/06/19 00:15:53;;;;;;;11.85;8.98;;;;;;;14.94;100.00;98158.97;2633544;28;20040;-92
2023/06/19 00:17:08;;;;;;;11.65;9.45;;;;;;;14.80;100.00;98157.03;2633418;28;20122;-94
2023/06/19 00:18:24;;;;;;;12.45;9.23;;;;;;;14.85;100.00;98155.00;2633713;28;20407;-93
2023/06/19 00:19:39;;;;;;;11.02;8.88;;;;;;;14.89;100.00;98150.44;2633429;28;20094;-92
2023/06/19 00:20:56;;;;;;;14.55;9.75;;;;;;;14.96;100.00;98157.13;2633841;28;20048;-93
2023/06/19 00:22:11;;;;;;;11.20;8.98;;;;;;;14.87;100.00;98152.31;2633429;28;20052;-93
2023/06/19 00:23:27;;;;;;;14.88;9.90;;;;;;;14.86;100.00;98156.72;2633482;28;20078;-93
2023/06/19 00:24:42;;;;;;;11.52;9.80;;;;;;;14.89;100.00;98156.59;2622390;28;20048;-91
2023/06/19 00:26:00;;;;;;;12.68;9.50;;;;;;;14.81;100.00;98149.06;2626736;28;20605;-93
2023/06/19 00:27:16;;;;;;;15.02;9.60;;;;;;;14.91;100.00;98159.13;2633008;28;20050;-92
2023/06/19 00:28:32;;;;;;;11.93;8.90;;;;;;;14.91;100.00;98149.44;2632923;28;20056;-93
2023/06/19 00:29:47;;;;;;;11.50;9.10;;;;;;;14.91;100.00;98153.84;2633405;28;20101;-93
2023/06/19 00:31:06;;;;;;;11.00;8.82;;;;;;;14.85;100.00;98148.91;2633341;28;20047;-93
2023/06/19 00:32:22;;;;;;;11.00;8.57;;;;;;;14.89;100.00;98153.94;2621888;28;20049;-93
2023/06/19 00:33:38;;;;;;;13.73;8.88;;;;;;;14.86;100.00;98151.44;2626610;28;20419;-93
2023/06/19 00:34:54;;;;;;;11.70;9.13;;;;;;;14.91;100.00;98145.94;2633214;28;20513;-93
2023/06/19 00:36:10;;;;;;;13.70;9.55;;;;;;;14.92;100.00;98145.00;2633429;28;20251;-93
2023/06/19 00:37:26;;;;;;;11.23;8.68;;;;;;;14.84;100.00;98155.94;2633175;28;20403;-93
2023/06/19 00:38:42;;;;;;;13.73;8.57;;;;;;;14.60;100.00;98150.09;2633311;28;20082;-92
2023/06/19 00:39:57;;;;;;;10.10;8.50;;;;;;;14.43;100.00;98148.28;2633387;28;20051;-93
2023/06/19 00:41:13;;;;;;;10.77;8.52;;;;;;;14.31;100.00;98144.47;2633186;28;20048;-93
2023/06/19 00:42:30;;;;;;;11.00;8.73;;;;;;;14.19;100.00;98145.91;2633160;28;20044;-94
2023/06/19 00:43:45;;;;;;;9.95;8.30;;;;;;;14.04;100.00;98143.09;2633330;28;20527;-93
2023/06/19 00:45:01;;;;;;;12.68;9.05;;;;;;;14.03;100.00;98135.25;2633154;28;20040;-93
2023/06/19 00:46:16;;;;;;;10.85;9.15;;;;;;;14.18;100.00;98139.78;2633762;28;20136;-93
2023/06/19 00:47:33;;;;;;;11.52;9.18;;;;;;;14.34;100.00;98137.28;2633614;28;20178;-93
2023/06/19 00:48:49;;;;;;;13.30;9.20;;;;;;;14.42;100.00;98139.53;2633483;28;20056;-93
2023/06/19 00:50:05;;;;;;;11.32;9.18;;;;;;;14.25;100.00;98135.94;2633578;28;20047;-93
2023/06/19 00:51:21;;;;;;;12.57;9.18;;;;;;;14.23;100.00;98132.50;2633506;28;20079;-92
2023/06/19 00:52:37;;;;;;;11.48;8.98;;;;;;;14.20;100.00;98131.81;2622226;28;20040;-93
2023/06/19 00:53:52;;;;;;;11.98;8.75;;;;;;;14.06;100.00;98133.31;2626907;28;20052;-93
2023/06/19 00:55:09;;;;;;;15.05;9.50;;;;;;;14.07;100.00;98128.91;2622122;28;20048;-92
2023/06/19 00:56:25;;;;;;;12.07;8.98;;;;;;;14.03;100.00;98129.97;2626988;28;20101;-92
2023/06/19 00:57:41;;;;;;;11.93;9.00;;;;;;;14.01;100.00;98131.84;2622214;28;20052;-92
2023/06/19 00:58:56;;;;;;;13.13;8.90;;;;;;;14.23;100.00;98135.13;2626787;28;20054;-92
2023/06/19 01:00:14;;;;;;;12.80;9.10;;;;;;;14.25;100.00;98127.19;2633528;28;20067;-93
2023/06/19 01:01:30;;;;;;;14.02;10.05;;;;;;;14.19;100.00;98128.31;2633560;28;20048;-93
2023/06/19 01:02:46;;;;;;;15.45;10.25;;;;;;;14.26;100.00;98127.13;2633540;28;20411;-92
2023/06/19 01:04:02;;;;;;;12.63;9.30;;;;;;;14.29;100.00;98120.00;2633475;28;20530;-92
2023/06/19 01:05:19;;;;;;;12.48;8.85;;;;;;;14.31;100.00;98126.03;2633747;28;20162;-92
2023/06/19 01:06:44;;;;;;;12.52;9.45;;;;;;;14.27;100.00;98126.19;2633509;28;20048;-93
2023/06/19 01:08:23;;;;;;;12.50;9.20;;;;;;;14.32;100.00;98123.34;2633433;28;20048;-94
2023/06/19 01:09:47;;;;;;;12.95;8.93;;;;;;;14.34;100.00;98128.50;2633336;28;20040;-93
2023/06/19 01:11:03;;;;;;;12.07;8.50;;;;;;;14.19;100.00;98128.31;2633406;28;20044;-93
2023/06/19 01:12:30;;;;;;;12.85;8.95;;;;;;;14.19;100.00;98120.41;2633385;28;20090;-92
2023/06/19 01:13:53;;;;;;;12.57;9.50;;;;;;;14.19;100.00;98123.06;2633261;28;20055;-93
2023/06/19 01:15:10;;;;;;;11.52;9.02;;;;;;;14.06;100.00;98122.81;2633287;28;20210;-94
2023/06/19 01:16:28;;;;;;;10.20;8.48;;;;;;;13.90;100.00;98122.66;2633612;28;20058;-92
2023/06/19 01:17:46;;;;;;;12.63;8.75;;;;;;;13.91;100.00;98129.63;2633179;28;20040;-93
2023/06/19 01:19:04;;;;;;;11.18;8.75;;;;;;;13.79;100.00;98127.56;2633281;28;20059;-92
2023/06/19 01:20:20;;;;;;;12.13;9.00;;;;;;;13.90;100.00;98124.41;2633522;28;20051;-94
2023/06/19 01:21:36;;;;;;;10.48;8.75;;;;;;;13.88;100.00;98118.38;2633492;28;20074;-92
2023/06/19 01:22:56;;;;;;;12.73;9.10;;;;;;;14.00;100.00;98114.34;2634562;28;20111;-91
2023/06/19 01:24:11;;;;;;;11.85;9.27;;;;;;;14.04;100.00;98115.88;2623570;28;20072;-92
2023/06/19 01:25:27;;;;;;;10.90;8.77;;;;;;;13.99;100.00;98118.72;2617431;28;20053;-92
2023/06/19 01:26:45;;;;;;;10.93;8.40;;;;;;;13.83;100.00;98119.47;2627851;28;20048;-92
2023/06/19 01:28:04;;;;;;;13.80;8.88;;;;;;;13.90;100.00;98119.16;2634405;28;20040;-92
2023/06/19 01:29:20;;;;;;;12.60;8.43;;;;;;;13.82;100.00;98116.88;2623983;28;20063;-92
2023/06/19 01:30:37;;;;;;;12.23;8.90;;;;;;;13.79;100.00;98122.28;2623583;28;20072;-92
2023/06/19 01:32:10;;;;;;;10.95;8.95;;;;;;;13.96;100.00;98121.53;2623284;28;20041;-93
2023/06/19 01:33:28;;;;;;;12.02;9.30;;;;;;;14.02;100.00;98117.75;2622861;28;20044;-93
2023/06/19 01:34:46;;;;;;;12.60;9.45;;;;;;;14.03;100.00;98128.19;2622874;28;20044;-93
2023/06/19 01:36:03;;;;;;;12.35;8.55;;;;;;;14.06;100.00;98119.28;2622832;28;20048;-93
2023/06/19 01:37:19;;;;;;;10.90;8.55;;;;;;;13.94;100.00;98124.22;2622840;28;20048;-93
2023/06/19 01:38:36;;;;;;;12.15;9.02;;;;;;;13.90;100.00;98113.91;2622715;28;20075;-94
2023/06/19 01:39:52;;;;;;;12.55;8.98;;;;;;;13.87;100.00;98120.19;2623207;28;20041;-92
2023/06/19 01:41:09;;;;;;;10.68;8.50;;;;;;;13.65;100.00;98113.25;2614022;28;20115;-93
2023/06/19 01:42:26;;;;;;;12.05;9.65;;;;;;;13.61;100.00;98111.72;2618375;28;20087;-93
2023/06/19 01:43:43;;;;;;;12.05;8.98;;;;;;;13.78;100.00;98110.06;2624731;28;20119;-93
2023/06/19 01:44:58;;;;;;;13.20;8.45;;;;;;;13.74;100.00;98106.72;2624928;28;20044;-93
2023/06/19 01:46:14;;;;;;;10.52;8.32;;;;;;;13.72;100.00;98105.09;2624694;28;20045;-93
2023/06/19 01:47:30;;;;;;;11.38;8.90;;;;;;;13.80;100.00;98109.09;2624736;28;20044;-92
2023/06/19 01:48:47;;;;;;;12.55;9.13;;;;;;;13.63;100.00;98107.22;2624842;28;20487;-93
2023/06/19 01:50:04;;;;;;;12.65;9.10;;;;;;;13.51;100.00;98108.66;2624973;28;20067;-93
2023/06/19 01:51:19;;;;;;;11.32;8.93;;;;;;;13.37;100.00;98111.00;2613495;28;20079;-93
2023/06/19 01:52:36;;;;;;;11.75;8.60;;;;;;;13.33;100.00;98109.44;2618325;28;20048;-92
2023/06/19 01:53:51;;;;;;;13.43;9.45;;;;;;;13.52;100.00;98109.47;2624590;28;20068;-93
2023/06/19 01:55:09;;;;;;;11.98;9.50;;;;;;;13.46;100.00;98115.03;2624831;28;20048;-93
2023/06/19 01:56:24;;;;;;;13.82;10.80;;;;;;;13.42;100.00;98119.53;2624896;28;20148;-93
2023/06/19 01:57:40;;;;;;;13.82;10.00;;;;;;;13.42;100.00;98117.78;2624816;28;20095;-93
2023/06/19 01:58:55;;;;;;;12.70;9.52;;;;;;;13.56;100.00;98117.16;2624607;28;20072;-92
2023/06/19 02:00:12;;;;;;;11.77;9.43;;;;;;;13.61;100.00;98118.72;2624874;28;20040;-93
2023/06/19 02:01:27;;;;;;;11.75;9.48;;;;;;;13.49;100.00;98107.88;2624674;28;20118;-92
2023/06/19 02:02:43;;;;;;;11.50;9.07;;;;;;;13.37;100.00;98113.66;2624848;28;20056;-93
2023/06/19 02:03:58;;;;;;;11.18;8.50;;;;;;;13.36;100.00;98114.56;2624789;28;20052;-93
2023/06/19 02:05:15;;;;;;;11.02;8.65;;;;;;;13.35;100.00;98116.34;2624689;28;20455;-92
2023/06/19 02:06:30;;;;;;;10.13;8.63;;;;;;;13.36;100.00;98125.94;2624575;28;20072;-93
2023/06/19 02:07:46;;;;;;;12.55;8.73;;;;;;;13.36;100.00;98127.72;2624602;28;20052;-95
2023/06/19 02:09:01;;;;;;;12.60;9.20;;;;;;;13.50;100.00;98116.59;2624600;28;20047;-92
2023/06/19 02:10:17;;;;;;;11.95;9.27;;;;;;;13.38;100.00;98123.25;2624827;28;20068;-93
2023/06/19 02:11:33;;;;;;;11.85;9.43;;;;;;;13.05;100.00;98116.75;2624957;28;20070;-93
2023/06/19 02:12:48;;;;;;;10.50;8.63;;;;;;;13.07;100.00;98114.91;2624527;28;20472;-94
2023/06/19 02:14:04;;;;;;;11.50;8.75;;;;;;;13.05;100.00;98121.16;2624642;28;20512;-93
2023/06/19 02:15:19;;;;;;;11.75;9.50;;;;;;;13.24;100.00;98126.47;2624716;28;20060;-94
2023/06/19 02:16:35;;;;;;;11.13;8.73;;;;;;;13.38;100.00;98118.81;2624825;28;20117;-93
2023/06/19 02:17:54;;;;;;;11.95;8.52;;;;;;;13.23;100.00;98122.13;2624616;28;20051;-94
2023/06/19 02:19:11;;;;;;;13.10;9.10;;;;;;;13.31;100.00;98120.03;2624424;28;20511;-93
2023/06/19 02:20:26;;;;;;;14.23;9.00;;;;;;;13.30;100.00;98120.94;2624873;28;20108;-93
2023/06/19 02:21:42;;;;;;;12.45;9.23;;;;;;;13.32;100.00;98120.88;2613703;28;20052;-93
2023/06/19 02:22:57;;;;;;;11.23;9.00;;;;;;;13.33;100.00;98120.81;2607181;28;20049;-93
2023/06/19 02:24:13;;;;;;;11.40;9.20;;;;;;;13.35;100.00;98112.88;2617935;28;20059;-93
2023/06/19 02:25:29;;;;;;;12.43;9.55;;;;;;;13.40;100.00;98119.59;2613681;28;20049;-94
2023/06/19 02:26:44;;;;;;;12.43;8.90;;;;;;;13.31;100.00;98117.41;2617759;28;20045;-93
2023/06/19 02:28:00;;;;;;;11.98;9.20;;;;;;;13.32;100.00;98118.22;2613142;28;20041;-93
2023/06/19 02:29:16;;;;;;;12.43;9.18;;;;;;;13.39;100.00;98120.53;2627392;28;20048;-93
2023/06/19 02:30:31;;;;;;;11.30;8.82;;;;;;;13.38;100.00;98117.97;2634563;28;20454;-94
2023/06/19 02:31:47;;;;;;;12.90;9.23;;;;;;;13.31;100.00;98119.16;2634594;28;20067;-93
2023/06/19 02:33:02;;;;;;;10.25;8.63;;;;;;;13.31;100.00;98116.53;2623301;28;20055;-94
2023/06/19 02:34:18;;;;;;;12.43;9.90;;;;;;;13.30;100.00;98115.69;2627839;28;20044;-93
2023/06/19 02:35:33;;;;;;;11.40;9.10;;;;;;;13.25;100.00;98112.41;2634732;28;20055;-93
2023/06/19 02:36:49;;;;;;;10.95;8.80;;;;;;;13.21;100.00;98116.09;2623396;28;20060;-93
2023/06/19 02:38:05;;;;;;;13.75;9.13;;;;;;;13.17;100.00;98118.00;2627891;28;20048;-93
2023/06/19 02:39:21;;;;;;;13.05;9.95;;;;;;;13.20;100.00;98122.28;2634558;28;20044;-93
2023/06/19 02:40:36;;;;;;;11.63;9.38;;;;;;;13.21;100.00;98121.34;2634545;28;20730;-93
2023/06/19 02:41:52;;;;;;;12.40;8.95;;;;;;;13.20;100.00;98117.00;2634743;28;20091;-93
2023/06/19 02:43:07;;;;;;;10.55;8.90;;;;;;;13.19;100.00;98123.19;2623286;28;20048;-93
2023/06/19 02:44:23;;;;;;;12.93;8.75;;;;;;;13.21;100.00;98126.59;2613060;28;20076;-93
2023/06/19 02:45:38;;;;;;;11.07;8.68;;;;;;;13.14;100.00;98119.00;2621517;28;20047;-93
2023/06/19 02:46:54;;;;;;;12.45;9.38;;;;;;;13.09;100.00;98122.75;2634429;28;20059;-92
2023/06/19 02:48:10;;;;;;;11.35;8.70;;;;;;;12.99;100.00;98115.25;2634310;28;20118;-93
2023/06/19 02:49:25;;;;;;;10.88;8.77;;;;;;;12.98;100.00;98117.94;2634407;28;20479;-92
2023/06/19 02:50:40;;;;;;;11.45;8.90;;;;;;;12.99;100.00;98119.63;2633950;28;20098;-93
2023/06/19 02:51:58;;;;;;;13.32;9.10;;;;;;;12.94;100.00;98122.50;2634582;28;20055;-92
2023/06/19 02:53:16;;;;;;;11.02;8.65;;;;;;;13.05;100.00;98122.03;2634678;28;20548;-93
2023/06/19 02:54:31;;;;;;;13.63;9.00;;;;;;;13.00;100.00;98118.75;2634195;28;20067;-92
2023/06/19 02:55:47;;;;;;;12.20;9.13;;;;;;;13.10;100.00;98119.19;2634543;28;20044;-93
2023/06/19 02:57:03;;;;;;;12.57;9.38;;;;;;;13.10;100.00;98116.56;2634240;28;20044;-94
2023/06/19 02:58:18;;;;;;;16.25;9.00;;;;;;;13.10;100.00;98124.44;2634687;28;20048;-93
2023/06/19 02:59:34;;;;;;;15.07;8.85;;;;;;;13.11;100.00;98113.84;2634761;28;20044;-92
2023/06/19 03:00:50;;;;;;;13.60;9.32;;;;;;;13.12;100.00;98120.81;2634476;28;20510;-93
2023/06/19 03:02:06;;;;;;;11.38;8.60;;;;;;;13.17;100.00;98117.16;2634900;28;20070;-93
2023/06/19 03:03:22;;;;;;;11.48;9.15;;;;;;;13.08;100.00;98115.78;2634662;28;20048;-93
2023/06/19 03:04:41;;;;;;;11.75;8.88;;;;;;;13.13;100.00;98122.56;2634452;28;20039;-93
2023/06/19 03:05:56;;;;;;;14.23;9.20;;;;;;;13.18;100.00;98122.31;2634701;28;20123;-93
2023/06/19 03:07:13;;;;;;;10.52;8.65;;;;;;;13.17;100.00;98122.41;2634520;28;20055;-93
2023/06/19 03:08:29;;;;;;;12.77;8.80;;;;;;;13.11;100.00;98120.91;2634744;28;20450;-93
2023/06/19 03:09:45;;;;;;;10.98;8.93;;;;;;;13.12;100.00;98122.59;2634297;28;20044;-93
2023/06/19 03:11:01;;;;;;;9.85;8.18;;;;;;;13.13;100.00;98122.56;2623445;28;20052;-93
2023/06/19 03:12:16;;;;;;;11.05;8.80;;;;;;;13.18;100.00;98122.31;2627815;28;20411;-92
2023/06/19 03:13:50;;;;;;;11.82;8.63;;;;;;;13.20;100.00;98124.91;2634533;28;20043;-93
2023/06/19 03:15:09;;;;;;;11.20;9.13;;;;;;;13.10;100.00;98124.44;2634583;28;20560;-93
2023/06/19 03:16:24;;;;;;;13.93;8.70;;;;;;;13.16;100.00;98121.53;2613034;28;20049;-92
2023/06/19 03:17:40;;;;;;;11.70;8.68;;;;;;;13.13;100.00;98125.19;2621739;28;20054;-92
2023/06/19 03:18:56;;;;;;;10.35;8.70;;;;;;;13.19;100.00;98125.81;2634676;28;20040;-92
2023/06/19 03:20:11;;;;;;;10.65;8.35;;;;;;;13.10;100.00;98119.19;2634538;28;20376;-93
2023/06/19 03:21:35;;;;;;;11.52;8.80;;;;;;;13.04;100.00;98125.56;2638622;28;20070;-93
2023/06/19 03:22:51;;;;;;;13.57;9.10;;;;;;;13.05;100.00;98122.03;2635401;28;20047;-93
2023/06/19 03:24:07;;;;;;;13.60;9.60;;;;;;;12.91;100.00;98119.97;2626099;28;20047;-93
2023/06/19 03:25:22;;;;;;;12.07;9.00;;;;;;;12.84;100.00;98127.25;2635804;28;20044;-94
2023/06/19 03:26:38;;;;;;;13.50;9.55;;;;;;;12.84;100.00;98124.63;2645218;28;20044;-94
2023/06/19 03:27:53;;;;;;;12.55;8.60;;;;;;;12.82;100.00;98129.09;2644867;28;20059;-93
2023/06/19 03:29:09;;;;;;;12.63;9.40;;;;;;;12.83;100.00;98124.72;2644906;28;20112;-93
2023/06/19 03:30:25;;;;;;;12.15;8.90;;;;;;;12.78;100.00;98124.03;2641883;28;20039;-93
2023/06/19 03:31:40;;;;;;;13.48;8.98;;;;;;;12.77;100.00;98128.44;2634702;28;20044;-93
2023/06/19 03:32:55;;;;;;;14.45;8.88;;;;;;;12.89;100.00;98124.44;2634371;28;20392;-95
2023/06/19 03:34:12;;;;;;;15.02;9.20;;;;;;;12.89;100.00;98123.59;2634203;28;20058;-93
2023/06/19 03:35:28;;;;;;;11.30;8.52;;;;;;;12.91;100.00;98119.13;2634189;28;20067;-93
2023/06/19 03:36:44;;;;;;;12.38;9.55;;;;;;;13.05;100.00;98124.66;2634115;28;20047;-93
2023/06/19 03:37:59;;;;;;;14.57;9.25;;;;;;;13.16;100.00;98116.28;2634653;28;20479;-94
2023/06/19 03:39:15;;;;;;;12.95;9.40;;;;;;;13.15;100.00;98119.84;2637913;28;20035;-94
2023/06/19 03:40:30;;;;;;;14.45;8.85;;;;;;;13.21;100.00;98118.72;2644945;28;20043;-92
2023/06/19 03:41:48;;;;;;;11.68;8.68;;;;;;;13.24;100.00;98113.31;2644690;28;20135;-93
2023/06/19 03:43:04;;;;;;;13.50;9.57;;;;;;;13.29;100.00;98124.50;2644765;28;20526;-93
2023/06/19 03:44:20;;;;;;;13.90;9.82;;;;;;;13.24;100.00;98122.06;2630299;28;20068;-93
2023/06/19 03:45:36;;;;;;;14.00;9.25;;;;;;;13.27;100.00;98123.72;2627602;28;20044;-92
2023/06/19 03:46:51;;;;;;;12.48;8.80;;;;;;;13.28;100.00;98123.63;2623151;28;20052;-93
2023/06/19 03:48:07;;;;;;;11.55;8.68;;;;;;;13.32;100.00;98116.47;2627751;28;20055;-94
2023/06/19 03:49:25;;;;;;;11.15;8.70;;;;;;;13.32;100.00;98120.88;2634132;28;20063;-93
2023/06/19 03:50:41;;;;;;;11.85;9.27;;;;;;;13.33;100.00;98125.19;2634470;28;20052;-92
2023/06/19 03:51:57;;;;;;;13.02;9.60;;;;;;;13.33;100.00;98115.56;2634419;28;20051;-93
2023/06/19 03:53:13;;;;;;;12.15;9.45;;;;;;;13.21;100.00;98116.09;2634094;28;20055;-93
2023/06/19 03:54:28;;;;;;;12.85;9.60;;;;;;;13.29;100.00;98119.25;2634139;28;20518;-92
2023/06/19 03:55:44;;;;;;;14.70;10.43;;;;;;;13.26;100.00;98119.34;2634160;28;20097;-92
2023/06/19 03:56:59;;;;;;;13.60;9.98;;;;;;;13.19;100.00;98115.31;2634075;28;20451;-92
2023/06/19 03:58:15;;;;;;;12.85;9.95;;;;;;;13.34;100.00;98122.50;2634100;28;20127;-94
2023/06/19 03:59:31;;;;;;;15.10;9.82;;;;;;;13.35;100.00;98118.13;2633817;28;20044;-93
2023/06/19 04:00:46;;;;;;;12.63;9.95;;;;;;;13.34;100.00;98116.38;2622743;28;20110;-93
2023/06/19 04:02:02;;;;;;;13.82;10.63;;;;;;;13.33;100.00;98120.81;2626930;28;20044;-93
2023/06/19 04:03:17;;;;;;;14.20;10.52;;;;;;;13.28;100.00;98122.81;2633464;28;20044;-92
2023/06/19 04:04:33;;;;;;;13.40;10.48;;;;;;;13.34;100.00;98119.88;2641005;28;20039;-92
2023/06/19 04:05:48;;;;;;;13.23;10.15;;;;;;;13.37;100.00;98127.63;2643977;28;20046;-93
2023/06/19 04:07:04;;;;;;;14.32;10.50;;;;;;;13.26;100.00;98130.75;2644368;28;20047;-92
2023/06/19 04:08:29;;;;;;;14.25;10.77;;;;;;;13.28;100.00;98133.31;2644278;28;20466;-92
2023/06/19 04:09:44;;;;;;;13.55;10.30;;;;;;;13.30;100.00;98128.84;2644416;28;20040;-93
2023/06/19 04:11:00;;;;;;;11.88;9.70;;;;;;;13.29;100.00;98129.75;2644159;28;20046;-87
2023/06/19 04:12:16;;;;;;;14.82;11.25;;;;;;;13.39;100.00;98125.78;2638242;28;20040;-87
2023/06/19 04:13:31;;;;;;;13.52;10.00;;;;;;;13.41;100.00;98129.22;2633821;28;20055;-87
2023/06/19 04:14:47;;;;;;;13.55;10.43;;;;;;;13.37;100.00;98127.63;2633511;28;20048;-87
2023/06/19 04:16:02;;;;;;;15.05;11.05;;;;;;;13.28;100.00;98138.56;2633630;28;20097;-87
2023/06/19 04:17:20;;;;;;;14.55;10.82;;;;;;;13.42;100.00;98136.19;2622488;28;20059;-88
2023/06/19 04:18:36;;;;;;;14.18;10.20;;;;;;;13.39;100.00;98136.31;2627052;28;20138;-87
2023/06/19 04:19:51;;;;;;;15.75;10.55;;;;;;;13.59;100.00;98141.63;2633593;28;20044;-87
2023/06/19 04:21:07;;;;;;;12.05;9.75;;;;;;;13.53;100.00;98138.34;2633623;28;20044;-87
2023/06/19 04:22:22;;;;;;;16.70;10.60;;;;;;;13.77;100.00;98134.69;2622391;28;20084;-86
2023/06/19 04:23:38;;;;;;;12.90;10.60;;;;;;;13.68;100.00;98143.84;2626730;28;20044;-87
2023/06/19 04:24:53;;;;;;;13.55;10.93;;;;;;;13.64;100.00;98139.66;2633610;28;20098;-87
2023/06/19 04:26:09;;;;;;;13.35;10.50;;;;;;;13.79;100.00;98143.34;2633589;28;20048;-91
2023/06/19 04:27:25;;;;;;;14.23;10.68;;;;;;;14.05;100.00;98141.28;2633464;28;20043;-90
2023/06/19 04:28:41;;;;;;;13.18;10.27;;;;;;;14.17;100.00;98143.34;2633343;28;20529;-90
2023/06/19 04:29:57;;;;;;;13.63;10.93;;;;;;;14.22;100.00;98141.34;2633547;28;20044;-90
2023/06/19 04:31:12;;;;;;;14.75;9.98;;;;;;;14.20;100.00;98144.97;2633495;28;20040;-91
2023/06/19 04:32:28;;;;;;;15.02;10.80;;;;;;;14.18;100.00;98149.44;2633314;28;20109;-90
2023/06/19 04:33:46;;;;;;;14.02;11.05;;;;;;;14.32;100.00;98147.03;2633623;28;20048;-91
2023/06/19 04:35:02;;;;;;;15.25;10.50;;;;;;;14.39;100.00;98148.44;2622332;28;20071;-91
2023/06/19 04:36:18;;;;;;;11.98;9.90;;;;;;;14.32;100.00;98151.44;2615760;28;20056;-91
2023/06/19 04:37:33;;;;;;;14.05;10.20;;;;;;;14.38;100.00;98145.84;2626287;28;20040;-91
2023/06/19 04:38:52;;;;;;;13.00;10.57;;;;;;;14.45;100.00;98152.53;2632537;28;20410;-91
2023/06/19 04:40:08;;;;;;;13.43;10.05;;;;;;;14.45;100.00;98152.53;2637012;28;20039;-91
2023/06/19 04:41:23;;;;;;;13.38;10.63;;;;;;;14.50;100.00;98150.53;2634625;28;20520;-92
2023/06/19 04:42:39;;;;;;;15.60;10.25;;;;;;;14.64;100.00;98149.88;2633203;28;20040;-91
2023/06/19 04:43:54;;;;;;;20.85;10.50;;;;;;;14.72;100.00;98146.88;2633085;28;20047;-91
2023/06/19 04:45:10;;;;;;;16.38;10.88;;;;;;;14.75;100.00;98146.72;2633552;28;20048;-92
2023/06/19 04:46:26;;;;;;;14.90;9.93;;;;;;;14.78;100.00;98149.19;2634454;28;20039;-91
2023/06/19 04:47:44;;;;;;;13.20;10.70;;;;;;;14.89;100.00;98150.44;2634932;28;20430;-92
2023/06/19 04:48:59;;;;;;;12.13;9.50;;;;;;;15.00;100.00;98153.41;2634451;28;20531;-92
2023/06/19 04:50:16;;;;;;;14.00;10.15;;;;;;;14.91;100.00;98156.50;2635765;28;20063;-92
2023/06/19 04:51:34;;;;;;;13.15;9.68;;;;;;;14.89;100.00;98153.94;2633031;28;20048;-91
2023/06/19 04:52:51;;;;;;;15.63;10.10;;;;;;;14.94;100.00;98154.56;2622800;28;20056;-91
2023/06/19 04:54:07;;;;;;;12.80;10.13;;;;;;;15.06;100.00;98154.88;2629428;28;20044;-91
2023/06/19 04:55:25;;;;;;;11.40;9.32;;;;;;;14.91;100.00;98165.28;2637400;28;20044;-90
2023/06/19 04:56:40;;;;;;;14.13;9.50;;;;;;;14.96;100.00;98163.25;2632592;28;20494;-90
2023/06/19 04:57:56;;;;;;;16.08;10.63;;;;;;;15.00;100.00;98163.94;2632580;28;20051;-90
2023/06/19 04:59:12;;;;;;;13.35;10.10;;;;;;;15.13;100.00;98165.97;2636147;28;20403;-90
2023/06/19 05:00:28;;;;;;;15.10;10.98;;;;;;;15.17;100.00;98159.59;2621604;28;20041;-91
2023/06/19 05:01:44;;;;;;;13.60;10.30;;;;;;;15.15;100.00;98158.81;2627612;28;20040;-90
2023/06/19 05:03:02;;;;;;;15.75;10.70;;;;;;;15.15;100.00;98164.94;2621588;28;20060;-89
2023/06/19 05:04:18;;;;;;;16.05;10.95;;;;;;;15.04;100.00;98165.50;2626958;28;20048;-90
2023/06/19 05:05:34;;;;;;;13.30;9.82;;;;;;;15.35;100.00;98163.91;2634876;28;20040;-90
2023/06/19 05:06:53;;;;;;;12.85;10.27;;;;;;;15.22;100.00;98171.63;2632036;28;20047;-89
2023/06/19 05:08:12;;;;;;;13.38;10.73;;;;;;;15.42;100.00;98171.50;2630663;28;20043;-90
2023/06/19 05:09:28;;;;;;;12.32;10.10;;;;;;;15.28;100.00;98177.50;2632327;28;20068;-91
2023/06/19 05:10:43;;;;;;;14.27;10.60;;;;;;;15.49;100.00;98167.59;2634940;28;20090;-91
2023/06/19 05:11:59;;;;;;;12.27;9.98;;;;;;;15.53;100.00;98166.53;2632757;28;20048;-90
2023/06/19 05:13:15;;;;;;;13.90;11.13;;;;;;;15.49;100.00;98181.66;2633240;28;20040;-91
2023/06/19 05:14:31;;;;;;;14.82;10.52;;;;;;;15.37;100.00;98171.75;2633503;28;20124;-88
2023/06/19 05:15:46;;;;;;;13.13;10.68;;;;;;;15.57;100.00;98173.34;2634297;28;20135;-96
2023/06/19 05:17:02;;;;;;;12.43;10.23;;;;;;;15.54;100.00;98181.44;2634177;28;20040;-88
2023/06/19 05:18:17;;;;;;;12.02;9.93;;;;;;;15.53;100.00;98174.44;2632496;28;20048;-89
2023/06/19 05:19:36;;;;;;;13.00;10.77;;;;;;;15.73;100.00;98172.53;2628098;28;20119;-89
2023/06/19 05:20:51;;;;;;;13.60;10.25;;;;;;;15.76;100.00;98169.72;2628077;28;20406;-90
2023/06/19 05:22:15;;;;;;;12.65;9.63;;;;;;;15.71;100.00;98172.59;2629528;28;20041;-90
2023/06/19 05:23:30;;;;;;;14.55;10.45;;;;;;;15.99;100.00;98180.84;2630571;28;20040;-90
2023/06/19 05:24:53;;;;;;;13.90;10.45;;;;;;;15.98;100.00;98184.44;2630199;28;20044;-90
2023/06/19 05:26:09;;;;;;;11.63;9.45;;;;;;;16.11;100.00;98182.84;2620920;28;20040;-90
2023/06/19 05:27:24;;;;;;;13.38;10.50;;;;;;;16.21;100.00;98183.16;2617078;28;20519;-91
2023/06/19 05:28:42;;;;;;;13.02;9.77;;;;;;;16.39;100.00;98189.22;2621018;28;20056;-90
2023/06/19 05:29:58;;;;;;;14.13;10.63;;;;;;;16.19;100.00;98185.06;2626380;28;20051;-90
2023/06/19 05:31:14;;;;;;;12.43;9.65;;;;;;;16.28;100.00;98191.59;2629609;28;20484;-91
2023/06/19 05:32:30;;;;;;;14.20;10.02;;;;;;;16.39;100.00;98191.88;2625556;28;20036;-91
2023/06/19 05:33:48;;;;;;;13.00;9.90;;;;;;;16.38;100.00;98191.00;2633748;28;20036;-90
2023/06/19 05:35:11;;;;;;;11.50;9.52;;;;;;;16.35;100.00;98190.34;2621874;28;20071;-90
2023/06/19 05:36:30;;;;;;;11.82;9.55;;;;;;;16.40;100.00;98193.56;2627328;28;20051;-91
2023/06/19 05:37:45;;;;;;;12.40;9.70;;;;;;;16.33;100.00;98194.84;2632952;28;20048;-90
2023/06/19 05:39:01;;;;;;;12.75;9.10;;;;;;;16.06;100.00;98195.41;2633055;28;20135;-89
2023/06/19 05:40:19;;;;;;;10.82;8.88;;;;;;;15.85;100.00;98197.41;2621588;28;20045;-88
2023/06/19 05:41:34;;;;;;;12.25;9.95;;;;;;;15.93;100.00;98197.88;2626383;28;20056;-90
2023/06/19 05:42:50;;;;;;;12.57;9.88;;;;;;;16.12;100.00;98200.38;2633109;28;20047;-90
2023/06/19 05:44:05;;;;;;;13.13;10.02;;;;;;;16.36;100.00;98194.69;2632882;28;20078;-90
2023/06/19 05:45:21;;;;;;;13.35;9.68;;;;;;;16.34;100.00;98194.75;2633087;28;20498;-91
2023/06/19 05:46:52;;;;;;;13.88;10.38;;;;;;;16.39;100.00;98197.16;2628232;28;20047;-90
2023/06/19 05:48:10;;;;;;;12.27;9.32;;;;;;;16.19;100.00;98204.38;2632988;28;20051;-90
2023/06/19 05:49:25;;;;;;;12.80;10.00;;;;;;;16.03;100.00;98208.78;2633008;28;20048;-89
2023/06/19 05:50:41;;;;;;;13.30;10.40;;;;;;;16.00;100.00;98208.97;2633000;28;20104;-89